createdAt,value
2023-03-06T00:04:45.648Z,99539.05
2023-03-06T00:09:38.276Z,99540.83
2023-03-06T00:14:30.923Z,99544.83
2023-03-06T00:19:24.526Z,99544.62
2023-03-06T00:24:17.433Z,99540.78
2023-03-06T00:29:10.090Z,99542.37
2023-03-06T00:34:03.938Z,99540.21
2023-03-06T00:38:56.718Z,99538.42
2023-03-06T00:43:51.518Z,99542.03
2023-03-06T00:48:44.951Z,99543.64
2023-03-06T00:53:38.377Z,99537.70
2023-03-06T00:58:31.097Z,99540.63
2023-03-06T01:03:23.729Z,99537.75
2023-03-06T01:08:17.802Z,99534.96
2023-03-06T01:13:10.807Z,99528.98
2023-03-06T01:18:03.519Z,99529.89
2023-03-06T01:22:56.777Z,99525.09
2023-03-06T01:27:49.377Z,99522.70
2023-03-06T01:32:42.164Z,99527.11
2023-03-06T01:37:37.650Z,99521.48
2023-03-06T01:42:32.069Z,99521.08
2023-03-06T01:47:24.859Z,99520.04
2023-03-06T01:52:23.087Z,99517.28
2023-03-06T01:57:30.055Z,99518.70
2023-03-06T02:02:23.621Z,99519.46
2023-03-06T02:07:21.566Z,99517.69
2023-03-06T02:12:18.839Z,99517.83
2023-03-06T02:17:14.028Z,99511.26
2023-03-06T02:22:07.275Z,99510.52
2023-03-06T02:27:02.071Z,99511.96
2023-03-06T02:31:54.817Z,99514.86
2023-03-06T02:36:51.664Z,99514.63
2023-03-06T02:41:44.490Z,99509.77
2023-03-06T02:46:38.890Z,99510.27
2023-03-06T02:51:31.560Z,99511.82
2023-03-06T02:56:24.328Z,99511.96
2023-03-06T03:01:17.227Z,99503.95
2023-03-06T03:06:10.035Z,99506.64
2023-03-06T03:11:03.880Z,99507.05
2023-03-06T03:16:09.093Z,99507.30
2023-03-06T03:21:01.862Z,99511.14
2023-03-06T03:25:54.886Z,99508.13
2023-03-06T03:30:48.192Z,99508.57
2023-03-06T03:35:41.487Z,99510.79
2023-03-06T03:40:34.344Z,99508.38
2023-03-06T03:45:27.062Z,99510.04
2023-03-06T03:50:20.574Z,99512.38
2023-03-06T03:55:13.649Z,99507.38
2023-03-06T04:00:08.151Z,99506.46
2023-03-06T04:05:07.072Z,99498.98
2023-03-06T04:10:00.161Z,99502.11
2023-03-06T04:14:53.607Z,99499.45
2023-03-06T04:19:46.373Z,99497.77
2023-03-06T04:24:41.629Z,99494.87
2023-03-06T04:29:34.736Z,99491.27
2023-03-06T04:34:27.549Z,99492.25
2023-03-06T04:39:20.298Z,99486.66
2023-03-06T04:44:13.823Z,99485.50
2023-03-06T04:49:06.538Z,99487.56
2023-03-06T04:53:59.288Z,99486.54
2023-03-06T04:58:51.979Z,99487.05
2023-03-06T05:03:44.584Z,99483.39
2023-03-06T05:08:37.374Z,99483.74
2023-03-06T05:13:30.160Z,99485.80
2023-03-06T05:18:23.112Z,99485.30
2023-03-06T05:23:16.274Z,99484.40
2023-03-06T05:28:09.252Z,99483.77
2023-03-06T05:33:02.443Z,99481.29
2023-03-06T05:37:55.093Z,99477.10
2023-03-06T05:42:47.741Z,99478.20
2023-03-06T05:47:40.425Z,99476.30
2023-03-06T05:52:33.103Z,99479.86
2023-03-06T05:57:27.664Z,99483.36
2023-03-06T06:02:20.916Z,99485.23
2023-03-06T06:07:15.655Z,99484.94
2023-03-06T06:12:11.490Z,99490.39
2023-03-06T06:17:04.249Z,99493.70
2023-03-06T06:21:57.042Z,99493.95
2023-03-06T06:26:58.000Z,99492.64
2023-03-06T06:31:52.230Z,99493.48
2023-03-06T06:36:45.632Z,99495.12
2023-03-06T06:41:56.996Z,99493.49
2023-03-06T06:52:03.554Z,99488.73
2023-03-06T06:56:56.203Z,99485.58
2023-03-06T07:01:48.892Z,99486.35
2023-03-06T07:06:42.514Z,99482.73
2023-03-06T07:11:35.755Z,99477.73
2023-03-06T07:16:28.790Z,99473.33
2023-03-06T07:21:24.511Z,99471.52
2023-03-06T07:26:17.215Z,99467.15
2023-03-06T07:31:11.632Z,99458.33
2023-03-06T07:36:04.874Z,99456.05
2023-03-06T07:40:57.526Z,99454.11
2023-03-06T07:45:57.842Z,99455.38
2023-03-06T07:51:02.963Z,99452.73
2023-03-06T07:55:55.949Z,99454.11
2023-03-06T08:00:48.867Z,99453.41
2023-03-06T08:05:41.813Z,99456.98
2023-03-06T08:10:34.569Z,99445.52
2023-03-06T08:15:27.253Z,99444.46
2023-03-06T08:20:19.976Z,99446.50
2023-03-06T08:25:15.222Z,99449.13
2023-03-06T08:30:09.649Z,99449.56
2023-03-06T08:35:04.683Z,99450.02
2023-03-06T08:39:57.440Z,99445.42
2023-03-06T08:44:50.664Z,99443.80
2023-03-06T08:49:43.332Z,99449.20
2023-03-06T08:54:37.440Z,99446.04
2023-03-06T08:59:30.212Z,99445.42
2023-03-06T09:04:22.835Z,99440.31
2023-03-06T09:09:15.822Z,99436.50
2023-03-06T09:14:08.741Z,99431.84
2023-03-06T09:19:01.756Z,99423.46
2023-03-06T09:23:54.412Z,99425.70
2023-03-06T09:28:47.844Z,99420.20
2023-03-06T09:33:40.623Z,99425.29
2023-03-06T09:38:33.480Z,99421.34
2023-03-06T09:43:48.170Z,99418.24
2023-03-06T09:49:10.548Z,99413.45
2023-03-06T09:54:14.554Z,99407.00
2023-03-06T09:59:20.427Z,99404.73
2023-03-06T10:04:48.026Z,99404.49
2023-03-06T10:09:47.499Z,99401.05
2023-03-06T10:14:48.471Z,99399.18
2023-03-06T10:19:43.300Z,99401.17
2023-03-06T10:24:56.000Z,99397.45
2023-03-06T10:30:07.581Z,99395.29
2023-03-06T10:35:05.393Z,99390.58
2023-03-06T10:40:10.275Z,99390.98
2023-03-06T10:45:09.564Z,99385.77
2023-03-06T10:50:05.642Z,99383.71
2023-03-06T10:55:23.947Z,99387.87
2023-03-06T11:00:37.023Z,99383.84
2023-03-06T11:05:29.798Z,99380.20
2023-03-06T11:10:24.004Z,99371.16
2023-03-06T11:15:19.035Z,99365.34
2023-03-06T11:20:20.799Z,99359.44
2023-03-06T11:25:17.889Z,99352.15
2023-03-06T11:30:20.158Z,99344.21
2023-03-06T11:35:25.791Z,99336.54
2023-03-06T11:40:33.114Z,99330.41
2023-03-06T11:45:37.293Z,99326.45
2023-03-06T11:50:39.004Z,99321.40
2023-03-06T11:55:31.576Z,99315.14
2023-03-06T12:00:40.084Z,99308.21
2023-03-06T12:05:50.435Z,99302.89
2023-03-06T12:10:53.601Z,99295.00
2023-03-06T12:16:04.929Z,99294.06
2023-03-06T12:21:39.453Z,99291.80
2023-03-06T12:26:51.001Z,99291.48
2023-03-06T12:32:06.425Z,99290.34
2023-03-06T12:37:17.292Z,99280.98
2023-03-06T12:42:35.556Z,99279.95
2023-03-06T12:47:29.273Z,99274.89
2023-03-06T12:52:32.527Z,99270.27
2023-03-06T12:57:26.660Z,99263.55
2023-03-06T13:02:44.008Z,99260.40
2023-03-06T13:08:14.490Z,99255.46
2023-03-06T13:13:32.621Z,99250.33
2023-03-06T13:18:25.229Z,99245.48
2023-03-06T13:23:30.125Z,99234.04
2023-03-06T13:28:40.230Z,99233.48
2023-03-06T13:33:33.216Z,99228.36
2023-03-06T13:39:11.150Z,99222.24
2023-03-06T13:44:28.253Z,99225.20
2023-03-06T13:49:25.776Z,99217.43
2023-03-06T13:54:37.158Z,99214.39
2023-03-06T13:59:59.629Z,99215.56
2023-03-06T14:05:00.911Z,99216.54
2023-03-06T14:10:15.677Z,99216.20
2023-03-06T14:15:32.815Z,99207.16
2023-03-06T14:20:34.568Z,99209.03
2023-03-06T14:25:32.916Z,99197.63
2023-03-06T14:30:27.105Z,99196.89
2023-03-06T14:35:26.719Z,99192.61
2023-03-06T14:40:31.447Z,99192.36
2023-03-06T14:45:25.171Z,99183.08
2023-03-06T14:50:30.319Z,99184.30
2023-03-06T14:55:25.654Z,99183.04
2023-03-06T15:00:22.508Z,99183.95
2023-03-06T15:05:28.420Z,99182.40
2023-03-06T15:10:30.984Z,99184.04
2023-03-06T15:15:30.256Z,99181.02
2023-03-06T15:20:42.459Z,99185.10
2023-03-06T15:25:36.056Z,99188.11
2023-03-06T15:30:31.024Z,99187.79
2023-03-06T15:35:30.280Z,99184.89
2023-03-06T15:40:25.519Z,99184.98
2023-03-06T15:45:21.899Z,99186.95
2023-03-06T15:50:20.922Z,99180.65
2023-03-06T15:55:15.019Z,99179.59
2023-03-06T16:00:26.453Z,99184.88
2023-03-06T16:05:20.924Z,99181.75
2023-03-06T16:10:15.714Z,99181.98
2023-03-06T16:15:20.099Z,99180.54
2023-03-06T16:20:23.821Z,99183.12
2023-03-06T16:25:18.444Z,99186.05
2023-03-06T16:30:20.853Z,99186.98
2023-03-06T16:35:14.877Z,99182.26
2023-03-06T16:40:19.324Z,99181.14
2023-03-06T16:45:12.548Z,99187.02
2023-03-06T16:50:05.941Z,99187.21
2023-03-06T16:54:58.557Z,99192.45
2023-03-06T16:59:52.304Z,99189.88
2023-03-06T17:04:45.315Z,99188.34
2023-03-06T17:09:38.007Z,99192.61
2023-03-06T17:14:30.976Z,99192.64
2023-03-06T17:19:23.647Z,99189.08
2023-03-06T17:24:16.830Z,99190.75
2023-03-06T17:29:12.157Z,99198.90
2023-03-06T17:34:50.096Z,99190.42
2023-03-06T17:39:49.917Z,99196.14
2023-03-06T17:44:43.000Z,99189.09
2023-03-06T17:49:35.795Z,99194.21
2023-03-06T17:54:30.247Z,99193.19
2023-03-06T17:59:22.986Z,99186.41
2023-03-06T18:04:16.974Z,99186.38
2023-03-06T18:09:10.292Z,99185.56
2023-03-06T18:14:05.376Z,99184.35
2023-03-06T18:18:58.578Z,99186.17
2023-03-06T18:23:51.901Z,99188.64
2023-03-06T18:28:47.439Z,99185.95
2023-03-06T18:33:40.095Z,99186.27
2023-03-06T18:38:33.521Z,99185.71
2023-03-06T18:43:26.256Z,99189.70
2023-03-06T18:48:18.983Z,99185.71
2023-03-06T18:53:11.774Z,99183.84
2023-03-06T18:58:04.529Z,99181.63
2023-03-06T19:02:57.233Z,99181.79
2023-03-06T19:07:49.972Z,99176.56
2023-03-06T19:12:42.780Z,99174.67
2023-03-06T19:17:37.715Z,99169.60
2023-03-06T19:22:31.610Z,99171.84
2023-03-06T19:27:24.308Z,99175.83
2023-03-06T19:32:17.188Z,99175.29
2023-03-06T19:37:10.073Z,99171.88
2023-03-06T19:42:04.714Z,99172.09
2023-03-06T19:46:57.693Z,99172.25
2023-03-06T19:51:50.450Z,99165.11
2023-03-06T19:56:43.390Z,99165.09
2023-03-06T20:01:36.232Z,99162.91
2023-03-06T20:06:33.603Z,99157.34
2023-03-06T20:11:29.904Z,99155.96
2023-03-06T20:16:30.202Z,99157.88
2023-03-06T20:21:23.383Z,99158.93
2023-03-06T20:26:17.172Z,99160.08
2023-03-06T20:31:19.571Z,99157.67
2023-03-06T20:36:40.517Z,99154.56
2023-03-06T20:41:33.966Z,99153.89
2023-03-06T20:47:21.875Z,99155.45
2023-03-06T20:53:14.029Z,99157.17
2023-03-06T20:58:42.452Z,99158.17
2023-03-06T21:03:35.893Z,99160.98
2023-03-06T21:08:28.963Z,99155.66
2023-03-06T21:18:55.216Z,99159.16
2023-03-06T21:23:49.580Z,99155.70
2023-03-06T21:28:42.816Z,99155.16
2023-03-06T21:33:35.697Z,99147.02
2023-03-06T21:38:29.238Z,99150.71
2023-03-06T21:43:22.004Z,99149.83
2023-03-06T21:48:16.274Z,99149.11
2023-03-06T21:53:10.089Z,99146.70
2023-03-06T21:58:02.828Z,99150.56
2023-03-06T22:02:55.610Z,99156.37
2023-03-06T22:07:48.535Z,99148.86
2023-03-06T22:12:42.063Z,99150.08
2023-03-06T22:17:34.820Z,99149.10
2023-03-06T22:22:27.867Z,99155.62
2023-03-06T22:27:20.605Z,99155.11
2023-03-06T22:32:13.445Z,99160.82
2023-03-06T22:37:06.189Z,99162.91
2023-03-06T22:41:59.186Z,99168.36
2023-03-06T22:46:52.215Z,99170.15
2023-03-06T22:51:44.888Z,99166.76
2023-03-06T22:56:37.850Z,99172.58
2023-03-06T23:01:33.818Z,99172.58
2023-03-06T23:06:31.942Z,99180.58
2023-03-06T23:11:25.679Z,99180.23
2023-03-06T23:16:38.521Z,99186.05
2023-03-06T23:21:49.963Z,99185.19
2023-03-06T23:27:02.585Z,99177.30
2023-03-06T23:31:55.261Z,99182.60
2023-03-06T23:36:50.611Z,99186.86
2023-03-06T23:41:44.558Z,99196.21
2023-03-06T23:46:37.808Z,99197.20
2023-03-06T23:51:30.538Z,99202.25
2023-03-06T23:56:24.238Z,99206.84
